Midland, Texas
Current Conditions -  °F | °C
As of 11:55 AM on Thursday 30 Oct 2014 (Local Time) from KMDD Reporting Station
Clear Clear  
Wind Chill: 75°   Ceiling: Unl
Heat Index: 75°   Visibility: 10mi
Dew Point: 59°   Wind: 9mph
Humidity: 58%   Direction: 260°W
Pressure: 30.16"   Gusts: NA
Location:  32°N, 102.07°W
Report Text: KMDD 301655Z AUTO 26008KT 10SM CLR 24/15 A3016 RMK AO2 T02380150
Loading
Personal Weather Stations






























Interactive Weather Map
Tropical Storm Tracking
New forecast layout! Learn more

10-Day Weather Forecast

Advertisements
Track Severe Weather on mobile